createdAt,value
2023-02-03T00:02:13.664Z,2.02
2023-02-03T00:04:42.006Z,2.06
2023-02-03T00:07:15.133Z,1.90
2023-02-03T00:09:43.802Z,1.85
2023-02-03T00:12:12.250Z,1.82
2023-02-03T00:14:40.545Z,1.87
2023-02-03T00:17:09.029Z,1.77
2023-02-03T00:19:37.503Z,1.72
2023-02-03T00:22:05.976Z,1.69
2023-02-03T00:24:35.636Z,1.69
2023-02-03T00:27:03.942Z,1.65
2023-02-03T00:29:32.259Z,1.65
2023-02-03T00:32:00.760Z,1.62
2023-02-03T00:34:30.355Z,1.62
2023-02-03T00:36:59.469Z,1.60
2023-02-03T00:39:27.845Z,1.53
2023-02-03T00:41:57.578Z,1.57
2023-02-03T00:44:26.323Z,1.60
2023-02-03T00:46:54.580Z,1.52
2023-02-03T00:49:23.037Z,1.49
2023-02-03T00:51:51.874Z,1.50
2023-02-03T00:54:21.085Z,1.49
2023-02-03T00:56:49.575Z,1.47
2023-02-03T00:59:19.593Z,1.49
2023-02-03T01:01:49.726Z,1.52
2023-02-03T01:04:18.153Z,1.52
2023-02-03T01:06:46.450Z,1.54
2023-02-03T01:09:14.892Z,1.57
2023-02-03T01:11:43.350Z,1.59
2023-02-03T01:14:12.135Z,1.61
2023-02-03T01:16:41.987Z,1.61
2023-02-03T01:19:11.132Z,1.63
2023-02-03T01:21:39.465Z,1.65
2023-02-03T01:24:09.625Z,1.76
2023-02-03T01:26:38.535Z,1.79
2023-02-03T01:29:06.982Z,1.82
2023-02-03T01:31:40.061Z,1.84
2023-02-03T01:34:16.449Z,1.85
2023-02-03T01:36:46.076Z,1.90
2023-02-03T01:39:15.272Z,1.97
2023-02-03T01:41:44.576Z,2.00
2023-02-03T01:44:42.207Z,2.10
2023-02-03T01:47:24.278Z,2.09
2023-02-03T01:50:04.752Z,2.11
2023-02-03T01:52:34.827Z,2.21
2023-02-03T01:55:09.216Z,2.29
2023-02-03T01:57:45.050Z,2.35
2023-02-03T02:00:15.673Z,2.26
2023-02-03T02:02:46.869Z,2.26
2023-02-03T02:05:26.629Z,2.24
2023-02-03T02:07:57.917Z,2.22
2023-02-03T02:10:27.529Z,2.27
2023-02-03T02:12:57.953Z,2.34
2023-02-03T02:15:42.158Z,2.34
2023-02-03T02:18:29.945Z,2.41
2023-02-03T02:21:47.645Z,2.47
2023-02-03T02:25:13.784Z,2.53
2023-02-03T02:28:28.825Z,2.65
2023-02-03T02:31:33.782Z,2.69
2023-02-03T02:34:16.135Z,2.78
2023-02-03T02:37:02.869Z,2.85
2023-02-03T02:39:44.528Z,3.03
2023-02-03T02:42:25.903Z,3.01
2023-02-03T02:45:06.260Z,3.17
2023-02-03T02:47:35.947Z,3.16
2023-02-03T02:50:12.943Z,3.26
2023-02-03T02:52:47.191Z,3.23
2023-02-03T02:55:24.689Z,3.41
2023-02-03T02:57:58.499Z,3.53
2023-02-03T03:00:28.366Z,3.59
2023-02-03T03:02:58.714Z,3.66
2023-02-03T03:05:30.182Z,3.82
2023-02-03T03:08:03.006Z,3.86
2023-02-03T03:10:35.821Z,3.93
2023-02-03T03:13:12.541Z,4.02
2023-02-03T03:15:44.325Z,4.10
2023-02-03T03:18:20.908Z,4.15
2023-02-03T03:20:54.305Z,4.21
2023-02-03T03:23:30.007Z,4.31
2023-02-03T03:26:10.825Z,4.37
2023-02-03T03:28:49.289Z,4.48
2023-02-03T03:31:20.686Z,4.54
2023-02-03T03:33:52.543Z,4.61
2023-02-03T03:36:28.948Z,4.70
2023-02-03T03:39:05.136Z,4.83
2023-02-03T03:41:44.780Z,4.86
2023-02-03T03:44:18.276Z,4.93
2023-02-03T03:46:53.305Z,5.02
2023-02-03T03:49:26.664Z,5.10
2023-02-03T03:52:02.675Z,5.15
2023-02-03T03:54:34.625Z,5.23
2023-02-03T03:57:15.582Z,5.31
2023-02-03T03:59:50.273Z,5.34
2023-02-03T04:02:22.327Z,5.43
2023-02-03T04:04:53.931Z,5.49
2023-02-03T04:07:22.227Z,5.54
2023-02-03T04:09:50.815Z,5.62
2023-02-03T04:12:25.411Z,5.69
2023-02-03T04:14:53.885Z,5.72
2023-02-03T04:17:23.967Z,5.84
2023-02-03T04:19:53.682Z,5.85
2023-02-03T04:22:24.855Z,5.86
2023-02-03T04:24:53.268Z,5.91
2023-02-03T04:27:22.460Z,5.93
2023-02-03T04:29:51.143Z,5.94
2023-02-03T04:32:20.990Z,5.90
2023-02-03T04:34:49.369Z,5.97
2023-02-03T04:37:21.182Z,6.00
2023-02-03T04:39:50.044Z,6.00
2023-02-03T04:42:20.521Z,6.05
2023-02-03T04:44:49.127Z,6.03
2023-02-03T04:47:19.352Z,6.05
2023-02-03T04:49:48.256Z,6.09
2023-02-03T04:52:18.177Z,6.05
2023-02-03T04:54:46.647Z,6.04
2023-02-03T04:57:15.299Z,6.07
2023-02-03T04:59:43.922Z,6.05
2023-02-03T05:02:12.345Z,6.04
2023-02-03T05:04:40.895Z,6.04
2023-02-03T05:07:09.336Z,6.05
2023-02-03T05:09:39.118Z,6.06
2023-02-03T05:12:08.054Z,6.07
2023-02-03T05:14:36.467Z,6.08
2023-02-03T05:17:04.910Z,6.10
2023-02-03T05:19:33.300Z,6.14
2023-02-03T05:22:05.310Z,6.10
2023-02-03T05:24:33.993Z,6.13
2023-02-03T05:27:03.794Z,6.13
2023-02-03T05:29:32.343Z,6.13
2023-02-03T05:32:00.784Z,6.15
2023-02-03T05:34:29.347Z,6.12
2023-02-03T05:36:57.815Z,6.15
2023-02-03T05:39:26.195Z,6.15
2023-02-03T05:41:55.404Z,6.15
2023-02-03T05:44:29.268Z,6.15
2023-02-03T05:47:00.411Z,6.15
2023-02-03T05:49:28.785Z,6.17
2023-02-03T05:51:57.468Z,6.15
2023-02-03T05:54:25.961Z,6.17
2023-02-03T05:56:54.722Z,6.18
2023-02-03T05:59:25.920Z,6.20
2023-02-03T06:01:55.608Z,6.21
2023-02-03T06:04:23.985Z,6.22
2023-02-03T06:06:54.607Z,6.22
2023-02-03T06:09:23.047Z,6.25
2023-02-03T06:11:51.381Z,6.30
2023-02-03T06:14:20.576Z,6.27
2023-02-03T06:16:49.570Z,6.26
2023-02-03T06:19:22.722Z,6.28
2023-02-03T06:21:51.480Z,6.28
2023-02-03T06:24:20.988Z,6.31
2023-02-03T06:26:49.309Z,6.33
2023-02-03T06:29:18.214Z,6.30
2023-02-03T06:31:46.742Z,6.33
2023-02-03T06:34:15.535Z,6.32
2023-02-03T06:36:45.263Z,6.32
2023-02-03T06:39:13.649Z,6.33
2023-02-03T06:41:41.977Z,6.31
2023-02-03T06:44:10.378Z,6.31
2023-02-03T06:46:39.166Z,6.33
2023-02-03T06:49:07.530Z,6.34
2023-02-03T06:51:36.351Z,6.33
2023-02-03T06:54:07.782Z,6.33
2023-02-03T06:56:36.199Z,6.34
2023-02-03T06:59:05.336Z,6.34
2023-02-03T07:01:34.074Z,6.34
2023-02-03T07:04:02.671Z,6.35
2023-02-03T07:06:34.299Z,6.33
2023-02-03T07:09:06.926Z,6.34
2023-02-03T07:11:38.486Z,6.33
2023-02-03T07:14:07.900Z,6.36
2023-02-03T08:07:47.176Z,6.09
2023-02-03T08:10:18.202Z,6.04
2023-02-03T08:12:48.601Z,5.96
2023-02-03T08:15:18.598Z,5.89
2023-02-03T08:17:51.031Z,5.89
2023-02-03T08:20:21.398Z,5.89
2023-02-03T08:22:52.206Z,5.90
2023-02-03T08:25:24.256Z,5.92
2023-02-03T08:27:55.840Z,5.90
2023-02-03T08:30:26.480Z,5.90
2023-02-03T08:32:57.099Z,5.89
2023-02-03T08:35:27.257Z,5.86
2023-02-03T08:37:58.899Z,5.84
2023-02-03T08:40:28.804Z,5.80
2023-02-03T08:42:58.611Z,5.75
2023-02-03T08:45:27.995Z,5.81
2023-02-03T08:47:56.561Z,5.83
2023-02-03T08:50:25.482Z,5.96
2023-02-03T08:52:53.992Z,5.98
2023-02-03T08:55:25.030Z,6.04
2023-02-03T08:57:53.512Z,6.07
2023-02-03T09:00:23.483Z,6.11
2023-02-03T09:02:52.133Z,6.20
2023-02-03T09:05:21.207Z,6.19
2023-02-03T09:07:51.972Z,6.24
2023-02-03T09:10:25.170Z,6.30
2023-02-03T09:12:53.998Z,6.36
2023-02-03T09:15:22.515Z,6.42
2023-02-03T09:17:51.034Z,6.36
2023-02-03T09:20:20.022Z,6.24
2023-02-03T09:22:48.511Z,6.27
2023-02-03T09:25:17.814Z,6.57
2023-02-03T09:27:48.274Z,6.71
2023-02-03T09:30:19.587Z,6.85
2023-02-03T09:32:54.228Z,6.88
2023-02-03T09:35:23.046Z,6.96
2023-02-03T09:37:51.673Z,7.23
2023-02-03T09:40:28.633Z,7.39
2023-02-03T09:43:16.912Z,7.11
2023-02-03T09:45:45.393Z,6.95
2023-02-03T09:48:20.345Z,7.08
2023-02-03T09:50:52.949Z,7.03
2023-02-03T09:53:34.829Z,7.06
2023-02-03T09:56:05.165Z,7.17
2023-02-03T09:58:36.504Z,7.27
2023-02-03T10:01:13.363Z,7.14
2023-02-03T10:03:50.053Z,7.31
2023-02-03T10:06:31.156Z,7.37
2023-02-03T10:09:28.207Z,7.61
2023-02-03T10:12:25.090Z,8.04
2023-02-03T10:15:21.792Z,7.66
2023-02-03T10:17:57.553Z,7.40
2023-02-03T10:20:42.050Z,7.24
2023-02-03T10:23:16.013Z,7.21
2023-02-03T10:25:57.394Z,7.17
2023-02-03T10:28:31.417Z,7.04
2023-02-03T10:31:05.748Z,6.96
2023-02-03T10:33:35.732Z,6.99
2023-02-03T10:36:19.208Z,7.05
2023-02-03T10:39:00.793Z,7.00
2023-02-03T10:41:32.729Z,6.99
2023-02-03T10:44:07.522Z,6.97
2023-02-03T10:46:42.135Z,6.88
2023-02-03T10:49:13.431Z,6.73
2023-02-03T10:51:49.346Z,6.53
2023-02-03T10:54:33.556Z,6.39
2023-02-03T10:57:12.593Z,6.28
2023-02-03T10:59:46.076Z,6.24
2023-02-03T11:02:29.342Z,6.25
2023-02-03T11:05:19.533Z,6.35
2023-02-03T11:07:48.526Z,6.45
2023-02-03T11:10:35.920Z,6.47
2023-02-03T11:13:21.766Z,6.54
2023-02-03T11:15:58.826Z,6.57
2023-02-03T11:18:52.863Z,6.65
2023-02-03T11:21:25.020Z,6.70
2023-02-03T11:24:04.675Z,6.76
2023-02-03T11:26:40.836Z,6.75
2023-02-03T11:29:22.802Z,6.78
2023-02-03T11:31:56.413Z,6.81
2023-02-03T11:34:32.265Z,6.83
2023-02-03T11:37:27.656Z,6.86
2023-02-03T11:39:58.085Z,6.97
2023-02-03T11:42:27.449Z,6.97
2023-02-03T11:45:15.807Z,7.01
2023-02-03T11:47:49.196Z,7.08
2023-02-03T11:50:32.057Z,7.11
2023-02-03T11:53:24.237Z,7.14
2023-02-03T11:56:18.563Z,7.18
2023-02-03T11:59:24.871Z,7.20
2023-02-03T12:02:45.661Z,7.25
2023-02-03T12:05:47.139Z,7.27
2023-02-03T12:08:45.818Z,7.30
2023-02-03T12:11:30.570Z,7.33
2023-02-03T12:14:19.248Z,7.31
2023-02-03T12:17:27.635Z,7.30
2023-02-03T12:20:21.906Z,7.29
2023-02-03T12:23:06.193Z,7.19
2023-02-03T12:25:54.141Z,7.07
2023-02-03T12:28:44.030Z,6.93
2023-02-03T12:31:24.728Z,6.97
2023-02-03T12:34:02.899Z,7.02
2023-02-03T12:36:41.054Z,6.99
2023-02-03T12:39:23.006Z,6.88
2023-02-03T12:42:11.931Z,6.66
2023-02-03T12:44:49.491Z,6.65
2023-02-03T12:47:29.261Z,6.59
2023-02-03T12:50:04.166Z,6.63
2023-02-03T12:52:38.914Z,6.79
2023-02-03T12:55:26.398Z,6.75
2023-02-03T12:58:03.165Z,6.74
2023-02-03T13:00:44.007Z,6.74
2023-02-03T13:03:26.209Z,6.68
2023-02-03T13:06:09.434Z,6.65
2023-02-03T13:08:45.328Z,6.41
2023-02-03T13:11:29.290Z,6.33
2023-02-03T13:14:05.115Z,6.35
2023-02-03T13:16:41.045Z,6.33
2023-02-03T13:19:20.736Z,6.36
2023-02-03T13:21:50.778Z,6.34
2023-02-03T13:24:26.797Z,6.34
2023-02-03T13:27:28.245Z,6.37
2023-02-03T13:30:22.701Z,6.40
2023-02-03T13:33:27.833Z,6.38
2023-02-03T13:36:13.570Z,6.30
2023-02-03T13:39:16.017Z,6.33
2023-02-03T13:41:51.052Z,6.29
2023-02-03T13:44:28.387Z,6.18
2023-02-03T13:47:01.842Z,6.08
2023-02-03T13:49:35.572Z,6.00
2023-02-03T13:52:05.018Z,5.98
2023-02-03T13:54:44.420Z,5.96
2023-02-03T13:57:24.498Z,5.92
2023-02-03T13:59:54.948Z,5.82
2023-02-03T14:02:55.117Z,5.76
2023-02-03T14:05:49.202Z,5.75
2023-02-03T14:08:53.680Z,5.74
2023-02-03T14:11:52.784Z,5.74
2023-02-03T14:15:04.744Z,5.72
2023-02-03T14:18:03.827Z,5.72
2023-02-03T14:20:57.958Z,5.79
2023-02-03T14:23:46.704Z,5.88
2023-02-03T14:26:25.897Z,5.96
2023-02-03T14:28:54.640Z,5.99
2023-02-03T14:31:28.361Z,6.06
2023-02-03T14:34:13.250Z,6.17
2023-02-03T14:36:57.243Z,6.28
2023-02-03T14:40:15.146Z,6.39
2023-02-03T14:43:27.403Z,6.51
2023-02-03T14:46:36.634Z,6.47
2023-02-03T14:49:42.869Z,6.47
2023-02-03T14:52:35.213Z,6.49
2023-02-03T14:55:30.889Z,6.46
2023-02-03T14:58:05.866Z,6.48
2023-02-03T15:00:37.605Z,6.50
2023-02-03T15:03:35.216Z,6.48
2023-02-03T15:06:06.159Z,6.53
2023-02-03T15:08:40.831Z,6.51
2023-02-03T15:11:30.127Z,6.51
2023-02-03T15:14:19.747Z,6.53
2023-02-03T15:16:56.004Z,6.56
2023-02-03T15:19:30.821Z,6.54
2023-02-03T15:21:59.253Z,6.55
2023-02-03T15:24:35.063Z,6.53
2023-02-03T15:27:03.396Z,6.54
2023-02-03T15:29:34.495Z,6.52
2023-02-03T15:32:12.420Z,6.60
2023-02-03T15:34:48.851Z,6.57
2023-02-03T15:37:27.822Z,6.57
2023-02-03T15:40:02.808Z,6.56
2023-02-03T15:42:39.571Z,6.58
2023-02-03T15:45:27.996Z,6.55
2023-02-03T15:48:00.921Z,6.50
2023-02-03T15:50:36.526Z,6.48
2023-02-03T15:53:11.524Z,6.44
2023-02-03T15:55:45.516Z,6.46
2023-02-03T15:58:21.658Z,6.42
2023-02-03T16:00:53.815Z,6.39
2023-02-03T16:03:29.704Z,6.43
2023-02-03T16:06:08.433Z,6.40
2023-02-03T16:08:43.329Z,6.35
2023-02-03T16:11:30.659Z,6.42
2023-02-03T16:14:01.713Z,6.36
2023-02-03T16:16:36.366Z,6.33
2023-02-03T16:19:11.944Z,6.27
2023-02-03T16:21:55.423Z,6.25
2023-02-03T16:24:40.879Z,6.22
2023-02-03T16:27:32.075Z,6.18
2023-02-03T16:30:43.312Z,6.14
2023-02-03T16:33:35.719Z,6.09
2023-02-03T16:36:31.614Z,6.02
2023-02-03T16:39:24.781Z,5.99
2023-02-03T16:42:15.914Z,5.95
2023-02-03T16:45:03.700Z,5.88
2023-02-03T16:47:51.428Z,5.85
2023-02-03T16:50:40.850Z,5.82
2023-02-03T16:53:15.994Z,5.78
2023-02-03T16:55:47.290Z,5.72
2023-02-03T16:58:15.755Z,5.59
2023-02-03T17:00:48.271Z,5.48
2023-02-03T17:03:17.820Z,5.40
2023-02-03T17:05:48.162Z,5.35
2023-02-03T17:08:18.281Z,5.35
2023-02-03T17:10:49.462Z,5.32
2023-02-03T17:13:21.189Z,5.24
2023-02-03T17:15:52.977Z,5.19
2023-02-03T17:18:22.249Z,5.18
2023-02-03T17:20:50.834Z,5.16
2023-02-03T17:23:19.366Z,5.13
2023-02-03T17:25:51.386Z,5.12
2023-02-03T17:28:19.899Z,5.11
2023-02-03T17:30:58.603Z,5.07
2023-02-03T17:33:27.739Z,5.01
2023-02-03T17:36:09.642Z,4.98
2023-02-03T17:55:18.827Z,4.82
2023-02-03T17:57:48.874Z,4.80
2023-02-03T18:00:18.296Z,4.80
2023-02-03T18:02:50.953Z,4.78
2023-02-03T18:05:19.974Z,4.76
2023-02-03T18:10:21.589Z,4.57
2023-02-03T18:12:51.486Z,4.37
2023-02-03T18:15:20.130Z,4.05
2023-02-03T18:17:48.416Z,3.77
2023-02-03T18:20:16.883Z,3.71
2023-02-03T18:22:46.124Z,3.59
2023-02-03T18:25:17.657Z,3.58
2023-02-03T18:27:46.143Z,3.54
2023-02-03T18:30:18.345Z,3.45
2023-02-03T18:32:47.828Z,3.47
2023-02-03T18:35:17.258Z,3.38
2023-02-03T18:37:46.166Z,3.16
2023-02-03T18:40:14.614Z,3.13
2023-02-03T18:42:42.891Z,3.05
2023-02-03T18:45:12.518Z,2.95
2023-02-03T18:47:42.217Z,2.94
2023-02-03T18:50:11.300Z,2.91
2023-02-03T18:52:39.750Z,2.88
2023-02-03T18:55:09.462Z,2.89
2023-02-03T18:57:37.925Z,2.80
2023-02-03T19:00:07.797Z,2.74
2023-02-03T19:02:38.126Z,2.59
2023-02-03T19:05:09.760Z,2.59
2023-02-03T19:07:38.127Z,2.56
2023-02-03T19:10:07.253Z,2.54
2023-02-03T19:12:35.525Z,2.62
2023-02-03T19:15:05.507Z,2.60
2023-02-03T19:17:34.407Z,2.57
2023-02-03T19:20:03.620Z,2.50
2023-02-03T19:22:34.490Z,2.49
2023-02-03T19:25:02.848Z,2.54
2023-02-03T19:27:32.133Z,2.60
2023-02-03T19:30:00.629Z,2.63
2023-02-03T19:32:29.197Z,2.64
2023-02-03T19:34:57.508Z,2.64
2023-02-03T19:37:26.847Z,2.75
2023-02-03T19:39:56.752Z,2.75
2023-02-03T19:42:25.030Z,2.78
2023-02-03T19:44:53.672Z,2.81
2023-02-03T19:47:22.234Z,2.85
2023-02-03T19:49:50.697Z,2.85
2023-02-03T19:52:19.117Z,2.85
2023-02-03T19:54:47.477Z,2.84
2023-02-03T19:57:17.132Z,2.82
2023-02-03T19:59:45.415Z,2.82
2023-02-03T20:02:16.017Z,2.87
2023-02-03T20:04:45.127Z,2.84
2023-02-03T20:07:14.467Z,2.84
2023-02-03T20:09:42.836Z,2.84
2023-02-03T20:12:12.162Z,2.81
2023-02-03T20:14:41.836Z,2.75
2023-02-03T20:17:10.097Z,2.79
2023-02-03T20:19:38.467Z,2.86
2023-02-03T20:22:06.844Z,2.77
2023-02-03T20:24:35.215Z,2.83
2023-02-03T20:27:03.799Z,2.83
2023-02-03T20:29:33.146Z,2.88
2023-02-03T20:32:06.819Z,2.86
2023-02-03T20:34:35.296Z,2.85
2023-02-03T20:37:03.743Z,2.77
2023-02-03T20:39:32.073Z,2.84
2023-02-03T20:42:00.523Z,2.81
2023-02-03T20:44:28.981Z,2.68
2023-02-03T20:46:57.420Z,2.63
2023-02-03T20:49:27.347Z,2.62
2023-02-03T20:51:56.294Z,2.66
2023-02-03T20:54:25.705Z,2.67
2023-02-03T20:56:53.982Z,2.70
2023-02-03T20:59:22.330Z,2.72
2023-02-03T21:02:07.887Z,2.71
2023-02-03T21:04:55.719Z,2.66
2023-02-03T21:07:24.144Z,2.66
2023-02-03T21:09:52.606Z,2.63
2023-02-03T21:12:21.092Z,2.60
2023-02-03T21:14:50.194Z,2.61
2023-02-03T21:17:23.304Z,2.56
2023-02-03T21:19:55.215Z,2.57
2023-02-03T21:22:26.338Z,2.49
2023-02-03T21:24:57.491Z,2.57
2023-02-03T21:27:29.691Z,2.55
2023-02-03T21:30:00.181Z,2.54
2023-02-03T21:32:38.689Z,2.52
2023-02-03T21:35:26.535Z,2.52
2023-02-03T21:38:01.964Z,2.54
2023-02-03T21:40:33.334Z,2.56
2023-02-03T21:43:03.381Z,2.53
2023-02-03T21:45:43.519Z,2.56
2023-02-03T21:48:32.131Z,2.59
2023-02-03T21:51:16.230Z,2.63
2023-02-03T21:53:53.873Z,2.60
2023-02-03T21:56:25.120Z,2.59
2023-02-03T21:58:58.993Z,2.51
2023-02-03T22:01:35.621Z,2.48
2023-02-03T22:04:06.520Z,2.45
2023-02-03T22:06:45.033Z,2.50
2023-02-03T22:09:15.572Z,2.52
2023-02-03T22:11:44.118Z,2.59
2023-02-03T22:14:13.724Z,2.57
2023-02-03T22:16:42.350Z,2.54
2023-02-03T22:19:11.507Z,2.56
2023-02-03T22:21:41.304Z,2.54
2023-02-03T22:24:09.734Z,2.55
2023-02-03T22:26:38.200Z,2.53
2023-02-03T22:29:06.759Z,2.53
2023-02-03T22:31:35.179Z,2.50
2023-02-03T22:34:03.576Z,2.53
2023-02-03T22:36:31.961Z,2.60
2023-02-03T22:39:01.655Z,2.54
2023-02-03T22:41:30.013Z,2.50
2023-02-03T22:43:58.341Z,2.50
2023-02-03T22:46:26.897Z,2.46
2023-02-03T22:48:55.198Z,2.46
2023-02-03T22:51:23.550Z,2.46
2023-02-03T22:53:51.928Z,2.51
2023-02-03T22:56:23.459Z,2.52
2023-02-03T22:58:51.941Z,2.60
2023-02-03T23:01:23.336Z,2.57
2023-02-03T23:03:51.658Z,2.51
2023-02-03T23:06:20.028Z,2.50
2023-02-03T23:08:48.348Z,2.50
2023-02-03T23:11:16.756Z,2.50
2023-02-03T23:13:48.371Z,2.51
2023-02-03T23:16:16.800Z,2.51
2023-02-03T23:18:45.158Z,2.56
2023-02-03T23:21:13.524Z,2.56
2023-02-03T23:23:41.973Z,2.60
2023-02-03T23:26:10.347Z,2.56
2023-02-03T23:28:39.656Z,2.60
2023-02-03T23:31:09.423Z,2.55
2023-02-03T23:33:37.873Z,2.59
2023-02-03T23:36:06.133Z,2.58
2023-02-03T23:38:36.213Z,2.50
2023-02-03T23:41:04.466Z,2.50
2023-02-03T23:43:32.833Z,2.48
2023-02-03T23:46:01.194Z,2.48
2023-02-03T23:48:30.849Z,2.50
2023-02-03T23:50:59.152Z,2.52
2023-02-03T23:53:27.586Z,2.50
2023-02-03T23:55:55.978Z,2.48
2023-02-03T23:58:24.323Z,2.52
